Pickens, Mississippi
Current Conditions -  °F | °C
As of 8:54 PM on Saturday 20 Dec 2014 (Local Time) from KJAN Reporting Station
Clear Clear  
Wind Chill: 41°   Ceiling: Unl
Heat Index: 44°   Visibility: 10mi
Dew Point: 39°   Wind: 6mph
Humidity: 82%   Direction: 60°ENE
Pressure: 30.19"   Gusts: NA
Location:  32.88°N, 89.97°W
Report Text: KJAN 210254Z 06005KT 10SM CLR 07/04 A3019 RMK AO2 SLP224 T00670039 51010
Loading
Personal Weather Stations






























Interactive Weather Map New forecast layout! Learn more

10-Day Weather Forecast

Advertisements
Track Severe Weather on mobile